createdAt,value
2022-08-16T00:00:41.472Z,63.6
2022-08-16T00:01:41.785Z,63.3
2022-08-16T00:02:41.489Z,63.1
2022-08-16T00:03:41.469Z,62.4
2022-08-16T00:04:41.467Z,61.9
2022-08-16T00:05:48.609Z,62
2022-08-16T00:06:41.468Z,62.5
2022-08-16T00:07:41.471Z,62.4
2022-08-16T00:08:41.477Z,62.8
2022-08-16T00:09:41.806Z,62.5
2022-08-16T00:10:41.469Z,62.5
2022-08-16T00:11:41.466Z,61.9
2022-08-16T00:12:41.477Z,61.8
2022-08-16T00:13:42.377Z,62
2022-08-16T00:14:41.469Z,62
2022-08-16T00:15:50.982Z,61.9
2022-08-16T00:17:05.424Z,61.6
2022-08-16T00:17:56.290Z,61
2022-08-16T00:18:41.484Z,61.2
2022-08-16T00:19:42.227Z,60.9
2022-08-16T00:20:41.476Z,61.6
2022-08-16T00:21:41.478Z,63.1
2022-08-16T00:22:42.876Z,62.6
2022-08-16T00:23:46.307Z,61.4
2022-08-16T00:24:41.470Z,62
2022-08-16T00:26:33.664Z,62.4
2022-08-16T00:26:44.557Z,62.6
2022-08-16T00:27:41.485Z,62.4
2022-08-16T00:28:41.481Z,63.1
2022-08-16T00:29:41.473Z,62.5
2022-08-16T00:30:41.478Z,63.1
2022-08-16T00:31:58.781Z,63
2022-08-16T00:32:41.480Z,63.5
2022-08-16T00:33:41.478Z,62.6
2022-08-16T00:34:52.370Z,62.4
2022-08-16T00:35:41.489Z,62.8
2022-08-16T00:36:47.090Z,62.7
2022-08-16T00:37:57.467Z,62.8
2022-08-16T00:38:43.522Z,62.4
2022-08-16T00:39:41.569Z,63.7
2022-08-16T00:40:43.814Z,63.4
2022-08-16T00:41:41.488Z,62.8
2022-08-16T00:43:43.229Z,63.3
2022-08-16T00:44:41.492Z,62.4
2022-08-16T00:45:55.405Z,63.2
2022-08-16T00:46:52.880Z,63.8
2022-08-16T00:47:42.516Z,63.2
2022-08-16T00:48:44.316Z,62.9
2022-08-16T00:49:44.540Z,62.8
2022-08-16T00:50:41.495Z,63.2
2022-08-16T00:51:41.497Z,64
2022-08-16T00:52:50.447Z,63.6
2022-08-16T00:53:41.492Z,63.3
2022-08-16T00:54:41.518Z,63.6
2022-08-16T00:55:41.501Z,63.4
2022-08-16T00:56:58.647Z,64
2022-08-16T00:58:00.118Z,64.2
2022-08-16T00:58:41.493Z,64
2022-08-16T00:59:54.641Z,64.8
2022-08-16T01:00:41.546Z,65.1
2022-08-16T01:01:41.494Z,65.4
2022-08-16T01:02:41.502Z,64.9
2022-08-16T01:03:41.897Z,65.3
2022-08-16T01:04:41.504Z,65
2022-08-16T01:05:41.496Z,65.2
2022-08-16T01:06:49.335Z,64.9
2022-08-16T01:07:50.783Z,65.6
2022-08-16T01:08:41.508Z,65
2022-08-16T01:09:42.977Z,65.3
2022-08-16T01:10:41.516Z,64.9
2022-08-16T01:11:54.099Z,65.2
2022-08-16T01:12:41.503Z,65.6
2022-08-16T01:13:41.503Z,65.5
2022-08-16T01:14:41.505Z,64.9
2022-08-16T01:15:43.475Z,65.2
2022-08-16T01:16:41.506Z,64.8
2022-08-16T01:17:42.302Z,65.3
2022-08-16T01:18:41.664Z,65.3
2022-08-16T01:19:41.515Z,65.5
2022-08-16T01:20:41.661Z,66.2
2022-08-16T01:21:41.520Z,65.9
2022-08-16T01:22:46.928Z,65.7
2022-08-16T01:24:00.906Z,65.6
2022-08-16T01:24:52.180Z,65.7
2022-08-16T01:25:41.513Z,66.1
2022-08-16T01:26:41.509Z,66
2022-08-16T01:27:41.510Z,66.3
2022-08-16T01:28:45.364Z,66.3
2022-08-16T01:29:56.840Z,66.4
2022-08-16T01:30:49.834Z,66.9
2022-08-16T01:31:42.894Z,66.3
2022-08-16T01:32:41.576Z,66.5
2022-08-16T01:33:44.669Z,66.6
2022-08-16T01:34:47.400Z,65.4
2022-08-16T01:35:41.511Z,66
2022-08-16T01:36:41.515Z,66.5
2022-08-16T01:37:42.349Z,65.3
2022-08-16T01:38:41.519Z,65.6
2022-08-16T01:39:41.567Z,65.4
2022-08-16T01:40:41.511Z,65.9
2022-08-16T01:41:42.167Z,66.1
2022-08-16T01:42:42.437Z,66.3
2022-08-16T01:43:41.518Z,66.5
2022-08-16T01:44:41.520Z,66.4
2022-08-16T01:45:41.764Z,66.6
2022-08-16T01:46:41.518Z,66.9
2022-08-16T01:47:49.408Z,66.2
2022-08-16T01:48:41.534Z,66.7
2022-08-16T01:49:45.745Z,66.7
2022-08-16T01:51:08.520Z,66.7
2022-08-16T01:51:41.524Z,67.1
2022-08-16T01:52:41.525Z,66.9
2022-08-16T01:53:42.119Z,66.1
2022-08-16T01:54:41.522Z,66.2
2022-08-16T01:55:41.521Z,66.9
2022-08-16T01:56:41.517Z,66.9
2022-08-16T01:57:41.533Z,67.8
2022-08-16T01:58:41.525Z,67.2
2022-08-16T01:59:41.522Z,67.7
2022-08-16T02:00:41.530Z,67.4
2022-08-16T02:01:41.598Z,68
2022-08-16T02:02:42.478Z,67.8
2022-08-16T02:03:41.525Z,67
2022-08-16T02:04:48.671Z,67.3
2022-08-16T02:05:42.105Z,67.5
2022-08-16T02:06:46.769Z,66.8
2022-08-16T02:07:44.063Z,67.6
2022-08-16T02:08:41.528Z,66.9
2022-08-16T02:09:41.522Z,67.1
2022-08-16T02:10:41.539Z,68.1
2022-08-16T02:11:47.930Z,68.7
2022-08-16T02:12:51.228Z,68.5
2022-08-16T02:13:41.900Z,68.3
2022-08-16T02:14:41.532Z,68.5
2022-08-16T02:15:43.767Z,68.1
2022-08-16T02:16:41.531Z,68.1
2022-08-16T02:17:41.526Z,68.8
2022-08-16T02:18:41.532Z,68.8
2022-08-16T02:19:58.688Z,68.8
2022-08-16T02:20:42.556Z,68.7
2022-08-16T02:22:08.977Z,68.3
2022-08-16T02:22:41.535Z,67.9
2022-08-16T02:23:41.542Z,67.7
2022-08-16T02:24:45.767Z,68.6
2022-08-16T02:25:52.729Z,68.9
2022-08-16T02:26:41.536Z,68.8
2022-08-16T02:27:41.544Z,68.5
2022-08-16T02:28:45.329Z,68.5
2022-08-16T02:29:41.995Z,68.2
2022-08-16T02:30:44.273Z,67.9
2022-08-16T02:32:03.245Z,68.5
2022-08-16T02:32:50.397Z,69.1
2022-08-16T02:33:43.561Z,69.1
2022-08-16T02:34:41.545Z,69.3
2022-08-16T02:35:54.559Z,69
2022-08-16T02:36:47.459Z,70.2
2022-08-16T02:37:51.267Z,68.6
2022-08-16T02:38:41.548Z,69.4
2022-08-16T02:39:41.627Z,69.6
2022-08-16T02:40:42.207Z,69.7
2022-08-16T02:41:41.545Z,69.8
2022-08-16T02:42:41.546Z,69.7
2022-08-16T02:43:41.545Z,69.8
2022-08-16T02:44:42.446Z,69.8
2022-08-16T02:46:41.539Z,70.5
2022-08-16T02:48:00.194Z,70.4
2022-08-16T02:48:49.156Z,70.4
2022-08-16T02:50:40.352Z,70.8
2022-08-16T02:50:54.288Z,70.8
2022-08-16T02:51:41.546Z,70.7
2022-08-16T02:52:43.746Z,71.4
2022-08-16T02:53:41.547Z,71.7
2022-08-16T02:54:41.556Z,71.6
2022-08-16T02:55:41.682Z,71.5
2022-08-16T02:56:41.552Z,70.9
2022-08-16T02:57:42.472Z,71
2022-08-16T02:58:41.551Z,71.2
2022-08-16T02:59:41.662Z,71.4
2022-08-16T03:00:45.476Z,71.5
2022-08-16T03:01:41.708Z,71.5
2022-08-16T03:02:41.555Z,71.5
2022-08-16T03:04:39.886Z,71
2022-08-16T03:04:51.957Z,70.6
2022-08-16T03:05:41.556Z,70.5
2022-08-16T03:06:43.159Z,71.7
2022-08-16T03:07:41.549Z,71.8
2022-08-16T03:08:51.984Z,71.7
2022-08-16T03:09:41.570Z,71.6
2022-08-16T03:10:41.559Z,70.7
2022-08-16T03:12:56.225Z,71.3
2022-08-16T03:13:41.556Z,71.7
2022-08-16T03:14:41.551Z,72.4
2022-08-16T03:15:41.560Z,72.2
2022-08-16T03:16:41.992Z,72.2
2022-08-16T03:17:52.971Z,72.2
2022-08-16T03:18:41.888Z,71.3
2022-08-16T03:19:47.531Z,73
2022-08-16T03:20:41.556Z,73.4
2022-08-16T03:21:41.552Z,72.4
2022-08-16T03:22:44.237Z,72.2
2022-08-16T03:23:41.570Z,72.5
2022-08-16T03:25:44.276Z,73.4
2022-08-16T03:26:41.574Z,73.4
2022-08-16T03:27:42.867Z,73.9
2022-08-16T03:28:41.571Z,74.2
2022-08-16T03:29:42.747Z,74.3
2022-08-16T03:30:41.559Z,74
2022-08-16T03:31:41.565Z,74.2
2022-08-16T03:32:41.574Z,73.9
2022-08-16T03:33:41.569Z,74.3
2022-08-16T03:34:41.566Z,74.7
2022-08-16T03:35:41.570Z,75.1
2022-08-16T03:36:41.568Z,74.6
2022-08-16T03:38:01.823Z,75.4
2022-08-16T03:38:41.565Z,75.2
2022-08-16T03:39:42.628Z,75.6
2022-08-16T03:40:41.593Z,75.8
2022-08-16T03:41:50.017Z,75.1
2022-08-16T03:43:02.156Z,74.1
2022-08-16T03:43:51.874Z,74.7
2022-08-16T03:44:47.577Z,74
2022-08-16T03:45:41.574Z,74.9
2022-08-16T03:46:47.337Z,74.7
2022-08-16T03:47:41.573Z,75.4
2022-08-16T03:48:41.577Z,75.7
2022-08-16T03:49:41.575Z,75.6
2022-08-16T03:50:41.572Z,75.7
2022-08-16T03:51:41.583Z,74.9
2022-08-16T03:52:43.810Z,74.9
2022-08-16T03:54:53.515Z,75.6
2022-08-16T03:55:45.777Z,76
2022-08-16T03:56:57.725Z,75.5
2022-08-16T03:57:41.579Z,76
2022-08-16T03:58:41.600Z,75.5
2022-08-16T03:59:43.531Z,76
2022-08-16T04:00:41.595Z,75.5
2022-08-16T04:01:41.613Z,76.1
2022-08-16T04:02:41.670Z,76.5
2022-08-16T04:03:41.639Z,76.6
2022-08-16T04:04:41.574Z,76.8
2022-08-16T04:07:41.584Z,77.1
2022-08-16T04:08:41.586Z,77.1
2022-08-16T04:09:41.585Z,77.2
2022-08-16T04:10:41.581Z,77
2022-08-16T04:11:41.585Z,76.8
2022-08-16T04:13:04.311Z,77
2022-08-16T04:13:59.426Z,77.1
2022-08-16T04:14:46.853Z,76.8
2022-08-16T04:15:41.577Z,76.9
2022-08-16T04:16:41.589Z,76.7
2022-08-16T04:17:41.582Z,76.2
2022-08-16T04:18:41.585Z,76
2022-08-16T04:19:45.420Z,77
2022-08-16T04:20:41.586Z,77.1
2022-08-16T04:21:45.952Z,77.4
2022-08-16T04:22:41.617Z,77.5
2022-08-16T04:23:41.586Z,77.2
2022-08-16T04:24:41.588Z,76.9
2022-08-16T04:25:41.594Z,76.6
2022-08-16T04:26:46.481Z,75.9
2022-08-16T04:27:41.592Z,76.8
2022-08-16T04:28:53.477Z,76.5
2022-08-16T04:29:43.747Z,76.7
2022-08-16T04:30:41.590Z,76.6
2022-08-16T04:31:41.595Z,77.3
2022-08-16T04:33:51.103Z,77
2022-08-16T04:34:41.612Z,76.5
2022-08-16T04:35:41.597Z,76.7
2022-08-16T04:36:41.593Z,76.9
2022-08-16T04:37:42.410Z,76.5
2022-08-16T04:38:41.598Z,77.2
2022-08-16T04:39:46.529Z,77.5
2022-08-16T04:40:41.678Z,76.5
2022-08-16T04:41:41.595Z,76.6
2022-08-16T04:42:41.606Z,76.7
2022-08-16T04:43:43.752Z,76.2
2022-08-16T04:44:53.410Z,75.4
2022-08-16T04:47:02.444Z,75.5
2022-08-16T04:47:41.603Z,75.4
2022-08-16T04:48:41.605Z,75.4
2022-08-16T04:49:45.911Z,75.1
2022-08-16T04:50:43.451Z,74.9
2022-08-16T04:51:41.603Z,75.6
2022-08-16T04:52:41.602Z,75.3
2022-08-16T04:54:43.109Z,76
2022-08-16T04:55:41.840Z,75.9
2022-08-16T04:56:42.825Z,76.1
2022-08-16T04:57:41.674Z,76.7
2022-08-16T04:58:46.089Z,76.7
2022-08-16T04:59:41.974Z,75.8
2022-08-16T05:00:41.607Z,76.5
2022-08-16T05:01:57.718Z,76.8
2022-08-16T05:02:42.896Z,76.5
2022-08-16T05:03:59.640Z,76.6
2022-08-16T05:04:41.626Z,77.4
2022-08-16T05:05:55.386Z,77
2022-08-16T05:06:44.895Z,77.3
2022-08-16T05:07:58.657Z,76.8
2022-08-16T05:08:47.207Z,76.3
2022-08-16T05:09:45.109Z,75.9
2022-08-16T05:11:41.610Z,76
2022-08-16T05:12:41.692Z,76.1
2022-08-16T05:13:42.533Z,76.4
2022-08-16T05:15:41.613Z,77.1
2022-08-16T05:16:41.611Z,77
2022-08-16T05:17:41.632Z,77
2022-08-16T05:18:41.615Z,76.6
2022-08-16T05:19:46.797Z,76.8
2022-08-16T05:21:01.608Z,76.9
2022-08-16T05:21:41.633Z,76.7
2022-08-16T05:22:44.454Z,76
2022-08-16T05:23:44.293Z,76.7
2022-08-16T05:24:41.614Z,76.9
2022-08-16T05:25:48.531Z,76.6
2022-08-16T05:26:43.145Z,76.3
2022-08-16T05:27:43.082Z,76.4
2022-08-16T05:28:41.617Z,76.3
2022-08-16T05:29:57.758Z,75.9
2022-08-16T05:30:41.617Z,75.8
2022-08-16T05:31:47.850Z,75.9
2022-08-16T05:32:45.846Z,75.7
2022-08-16T05:33:42.300Z,75.5
2022-08-16T05:34:41.615Z,75
2022-08-16T05:35:41.614Z,74.6
2022-08-16T05:36:41.614Z,74.9
2022-08-16T05:37:41.620Z,75
2022-08-16T05:38:41.624Z,73.9
2022-08-16T05:39:41.669Z,74.3
2022-08-16T05:40:41.638Z,73.7
2022-08-16T05:41:45.682Z,72.7
2022-08-16T05:42:47.791Z,72.5
2022-08-16T05:43:43.266Z,73.7
2022-08-16T05:44:41.625Z,74.2
2022-08-16T05:45:41.629Z,73.3
2022-08-16T05:46:43.664Z,74.5
2022-08-16T05:47:43.000Z,75
2022-08-16T05:48:41.624Z,74.5
2022-08-16T05:50:41.836Z,74.7
2022-08-16T05:51:41.875Z,74.3
2022-08-16T05:52:44.934Z,74.5
2022-08-16T05:54:45.945Z,74.4
2022-08-16T05:55:41.625Z,74.4
2022-08-16T05:56:41.628Z,74
2022-08-16T05:57:41.863Z,74.3
2022-08-16T05:58:41.632Z,73.5
2022-08-16T05:59:41.628Z,73.6
2022-08-16T06:00:41.626Z,73.1
2022-08-16T06:01:41.745Z,72.8
2022-08-16T06:02:41.629Z,71
2022-08-16T06:03:41.628Z,73
2022-08-16T06:04:42.408Z,72
2022-08-16T06:05:42.131Z,72.9
2022-08-16T06:06:41.637Z,69.9
2022-08-16T06:07:41.631Z,71.2
2022-08-16T06:08:42.095Z,70.2
2022-08-16T06:09:43.335Z,70.5
2022-08-16T06:11:03.047Z,70.6
2022-08-16T06:11:43.155Z,70.5
2022-08-16T06:12:41.637Z,71.4
2022-08-16T06:13:42.352Z,71.4
2022-08-16T06:14:41.635Z,72.5
2022-08-16T06:15:41.689Z,72
2022-08-16T06:16:41.648Z,71
2022-08-16T06:17:43.454Z,71.2
2022-08-16T06:18:41.644Z,70.9
2022-08-16T06:19:44.679Z,70.2
2022-08-16T06:20:55.406Z,71.1
2022-08-16T06:21:41.636Z,70.8
2022-08-16T06:22:44.662Z,70.6
2022-08-16T06:23:41.647Z,69.7
2022-08-16T06:24:54.242Z,71
2022-08-16T06:25:41.638Z,71.7
2022-08-16T06:26:57.499Z,71.7
2022-08-16T06:27:41.644Z,72.1
2022-08-16T06:28:41.634Z,71.4
2022-08-16T06:29:41.649Z,69.6
2022-08-16T06:30:43.320Z,69.8
2022-08-16T06:32:43.145Z,71.4
2022-08-16T06:33:42.414Z,71.5
2022-08-16T06:34:55.867Z,71
2022-08-16T06:36:41.882Z,71.2
2022-08-16T06:37:42.976Z,71.7
2022-08-16T06:38:55.449Z,71.6
2022-08-16T06:39:46.725Z,72.1
2022-08-16T06:40:41.645Z,71.7
2022-08-16T06:41:41.648Z,71
2022-08-16T06:42:47.478Z,70.9
2022-08-16T06:43:41.656Z,71.3
2022-08-16T06:44:42.181Z,71.7
2022-08-16T06:45:43.480Z,71.6
2022-08-16T06:46:41.650Z,71.2
2022-08-16T06:47:52.936Z,71
2022-08-16T06:48:42.851Z,70.9
2022-08-16T06:49:41.654Z,70.8
2022-08-16T06:50:41.647Z,70.5
2022-08-16T06:51:46.313Z,70.1
2022-08-16T06:52:57.567Z,70.5
2022-08-16T06:53:41.661Z,70.4
2022-08-16T06:54:41.654Z,69.4
2022-08-16T06:55:41.656Z,68.4
2022-08-16T06:56:41.661Z,69.3
2022-08-16T06:57:41.656Z,69.6
2022-08-16T06:58:41.658Z,69.6
2022-08-16T06:59:52.504Z,69
2022-08-16T07:00:43.031Z,68.2
2022-08-16T07:01:43.404Z,68.2
2022-08-16T07:02:51.344Z,68.6
2022-08-16T07:03:55.328Z,68.9
2022-08-16T07:04:41.654Z,67.7
2022-08-16T07:05:41.939Z,67.8
2022-08-16T07:06:43.310Z,68.8
2022-08-16T07:07:41.654Z,69.1
2022-08-16T07:08:41.660Z,67.8
2022-08-16T07:09:41.758Z,68.8
2022-08-16T07:11:45.637Z,66.7
2022-08-16T07:12:47.544Z,66.6
2022-08-16T07:14:22.968Z,65.9
2022-08-16T07:14:41.672Z,65.2
2022-08-16T07:15:50.782Z,63.1
2022-08-16T07:16:41.662Z,63.7
2022-08-16T07:18:58.855Z,62.6
2022-08-16T07:20:02.872Z,63.7
2022-08-16T07:20:47.869Z,63.8
2022-08-16T07:21:46.183Z,63.1
2022-08-16T07:22:41.673Z,62.4
2022-08-16T07:23:41.683Z,62.6
2022-08-16T07:24:45.670Z,63.1
2022-08-16T07:25:41.669Z,64.3
2022-08-16T07:26:41.670Z,64.2
2022-08-16T07:27:41.664Z,63.5
2022-08-16T07:28:41.663Z,62.8
2022-08-16T07:29:41.672Z,63
2022-08-16T07:30:46.512Z,62.3
2022-08-16T07:31:41.673Z,62.7
2022-08-16T07:32:41.694Z,63.6
2022-08-16T07:33:51.766Z,61.2
2022-08-16T07:34:48.509Z,63.4
2022-08-16T07:36:41.690Z,59.3
2022-08-16T07:37:41.686Z,59.9
2022-08-16T07:38:41.678Z,60.6
2022-08-16T07:39:43.201Z,59.3
2022-08-16T07:40:59.487Z,60.2
2022-08-16T07:41:41.673Z,59.4
2022-08-16T07:42:41.695Z,58.5
2022-08-16T07:43:41.792Z,60.1
2022-08-16T07:44:49.130Z,60
2022-08-16T07:45:43.032Z,59.6
2022-08-16T07:46:41.674Z,60.4
2022-08-16T07:47:41.929Z,58.6
2022-08-16T07:48:41.680Z,59.1
2022-08-16T07:49:53.346Z,58.7
2022-08-16T07:50:56.451Z,57.8
2022-08-16T07:51:42.209Z,57.9
2022-08-16T07:52:41.677Z,57.7
2022-08-16T07:53:43.521Z,58.2
2022-08-16T07:54:45.931Z,57.9
2022-08-16T07:55:47.875Z,57
2022-08-16T07:56:41.675Z,57
2022-08-16T07:57:57.975Z,57.4
2022-08-16T07:58:41.684Z,56.7
2022-08-16T07:59:46.257Z,56.5
2022-08-16T08:00:41.725Z,56.6
2022-08-16T08:01:41.681Z,56.1
2022-08-16T08:02:41.686Z,58
2022-08-16T08:03:46.170Z,57.5
2022-08-16T08:04:41.683Z,56.7
2022-08-16T08:05:41.682Z,58
2022-08-16T08:06:41.692Z,57.8
2022-08-16T08:07:45.336Z,58.5
2022-08-16T08:08:50.702Z,58.1
2022-08-16T08:09:43.217Z,58.3
2022-08-16T08:10:41.695Z,57.4
2022-08-16T08:11:41.687Z,57.8
2022-08-16T08:12:43.766Z,57.2
2022-08-16T08:13:42.989Z,57.4
2022-08-16T08:14:41.689Z,57.8
2022-08-16T08:15:52.709Z,57.3
2022-08-16T08:16:45.429Z,56.8
2022-08-16T08:17:42.637Z,56.6
2022-08-16T08:18:41.759Z,56.3
2022-08-16T08:19:41.697Z,56.2
2022-08-16T08:20:41.685Z,56.5
2022-08-16T08:22:00.779Z,56.4
2022-08-16T08:22:41.767Z,56.9
2022-08-16T08:23:42.556Z,56.7
2022-08-16T08:24:44.128Z,55.9
2022-08-16T08:26:42.956Z,56.8
2022-08-16T08:27:41.699Z,57.5
2022-08-16T08:28:41.695Z,56.9
2022-08-16T08:29:42.725Z,55.6
2022-08-16T08:30:51.572Z,55.2
2022-08-16T08:31:41.699Z,54.9
2022-08-16T08:32:59.837Z,55.9
2022-08-16T08:33:46.700Z,55.8
2022-08-16T08:34:41.699Z,56.8
2022-08-16T08:35:41.698Z,56.6
2022-08-16T08:36:41.705Z,56.2
2022-08-16T08:37:55.050Z,56.3
2022-08-16T08:38:45.915Z,56.4
2022-08-16T08:39:54.934Z,56.3
2022-08-16T08:40:41.707Z,55.7
2022-08-16T08:41:42.288Z,55.3
2022-08-16T08:42:41.710Z,54.4
2022-08-16T08:43:42.087Z,54.8
2022-08-16T08:44:41.707Z,54.9
2022-08-16T08:45:49.049Z,54.8
2022-08-16T08:46:41.705Z,53
2022-08-16T08:47:41.705Z,54.3
2022-08-16T08:48:43.819Z,55.5
2022-08-16T08:49:46.673Z,54.8
2022-08-16T08:50:41.707Z,53.1
2022-08-16T08:51:41.706Z,53.7
2022-08-16T08:52:41.713Z,53.9
2022-08-16T08:53:41.712Z,53.6
2022-08-16T08:54:41.738Z,52.6
2022-08-16T08:55:41.706Z,51.3
2022-08-16T08:56:45.887Z,51.9
2022-08-16T08:57:41.717Z,51.2
2022-08-16T08:58:54.304Z,50
2022-08-16T08:59:41.718Z,50.2
2022-08-16T09:00:50.901Z,48.7
2022-08-16T09:01:42.609Z,48.9
2022-08-16T09:02:41.764Z,49.6
2022-08-16T09:03:41.735Z,50.4
2022-08-16T09:04:41.719Z,49.2
2022-08-16T09:05:41.712Z,48.2
2022-08-16T09:06:43.161Z,47
2022-08-16T09:08:00.478Z,45.2
2022-08-16T09:08:41.719Z,46.2
2022-08-16T09:09:41.727Z,45.6
2022-08-16T09:10:41.720Z,46
2022-08-16T09:11:41.723Z,46.1
2022-08-16T09:12:41.728Z,45.7
2022-08-16T09:13:47.124Z,45.7
2022-08-16T09:14:49.590Z,44.5
2022-08-16T09:15:41.727Z,43.9
2022-08-16T09:17:02.723Z,43.7
2022-08-16T09:17:51.676Z,44.5
2022-08-16T09:18:41.757Z,45.4
2022-08-16T09:19:41.736Z,45.4
2022-08-16T09:20:58.592Z,46.2
2022-08-16T09:21:41.727Z,46.4
2022-08-16T09:22:41.785Z,44.9
2022-08-16T09:23:41.728Z,43.9
2022-08-16T09:24:51.946Z,43.5
2022-08-16T09:25:43.278Z,43.1
2022-08-16T09:26:43.978Z,42.6
2022-08-16T09:27:56.622Z,42.2
2022-08-16T09:29:14.985Z,42.8
2022-08-16T09:29:44.437Z,42.9
2022-08-16T09:30:43.940Z,42
2022-08-16T09:31:41.826Z,41.7
2022-08-16T09:32:41.770Z,41.1
2022-08-16T09:33:41.739Z,40.9
2022-08-16T09:34:41.741Z,41.7
2022-08-16T09:36:46.114Z,40.8
2022-08-16T09:37:41.745Z,40.9
2022-08-16T09:38:41.771Z,41.3
2022-08-16T09:39:43.393Z,40.4
2022-08-16T09:40:43.348Z,40.5
2022-08-16T09:41:41.742Z,41.8
2022-08-16T09:42:53.009Z,41.5
2022-08-16T09:43:59.816Z,40.7
2022-08-16T09:45:13.145Z,40.5
2022-08-16T09:46:48.197Z,38.9
2022-08-16T09:47:57.224Z,40.1
2022-08-16T09:48:44.648Z,42.1
2022-08-16T09:49:41.752Z,40.5
2022-08-16T09:50:41.747Z,40.8
2022-08-16T09:51:41.745Z,40.5
2022-08-16T09:52:44.509Z,40.4
2022-08-16T09:53:43.199Z,40
2022-08-16T09:54:44.464Z,38.5
2022-08-16T09:55:44.604Z,39.1
2022-08-16T09:56:52.756Z,38.8
2022-08-16T09:57:41.750Z,37.8
2022-08-16T09:59:05.868Z,38.2
2022-08-16T09:59:42.127Z,39.2
2022-08-16T10:00:43.946Z,39.3
2022-08-16T10:01:43.557Z,38.2
2022-08-16T10:02:44.315Z,38.9
2022-08-16T10:04:01.732Z,38.1
2022-08-16T10:04:54.375Z,38.3
2022-08-16T10:05:41.756Z,38.3
2022-08-16T10:06:46.163Z,38.9
2022-08-16T10:07:44.973Z,39.1
2022-08-16T10:09:04.385Z,39.5
2022-08-16T10:09:44.694Z,37.3
2022-08-16T10:10:41.758Z,36.2
2022-08-16T10:11:50.458Z,36.1
2022-08-16T10:12:42.392Z,35.5
2022-08-16T10:13:41.813Z,35.2
2022-08-16T10:14:46.020Z,35.6
2022-08-16T10:15:41.789Z,34.6
2022-08-16T10:16:41.756Z,34.1
2022-08-16T10:17:41.759Z,34.9
2022-08-16T10:19:06.430Z,34.6
2022-08-16T10:19:43.176Z,34.2
2022-08-16T10:20:41.762Z,35.1
2022-08-16T10:21:41.755Z,35.1
2022-08-16T10:22:41.793Z,34.8
2022-08-16T10:23:41.765Z,33.5
2022-08-16T10:24:56.082Z,34.2
2022-08-16T10:27:18.202Z,34.9
2022-08-16T10:27:20.022Z,34.8
2022-08-16T10:27:56.757Z,34.5
2022-08-16T10:28:42.248Z,35
2022-08-16T10:29:59.954Z,35.2
2022-08-16T10:30:41.767Z,34.7
2022-08-16T10:31:43.804Z,34.3
2022-08-16T10:32:41.770Z,33.2
2022-08-16T10:33:41.773Z,33.6
2022-08-16T10:35:46.558Z,35.3
2022-08-16T10:36:41.776Z,34.6
2022-08-16T10:37:41.774Z,35.4
2022-08-16T10:38:41.989Z,33.9
2022-08-16T10:39:42.560Z,32.7
2022-08-16T10:40:45.412Z,33.3
2022-08-16T10:41:41.775Z,32.6
2022-08-16T10:42:41.780Z,32.9
2022-08-16T10:43:41.780Z,34
2022-08-16T10:44:42.331Z,33.6
2022-08-16T10:45:42.053Z,32.6
2022-08-16T10:46:42.344Z,31.6
2022-08-16T10:47:41.810Z,33
2022-08-16T10:48:41.777Z,31.7
2022-08-16T10:49:41.785Z,33.3
2022-08-16T10:50:41.787Z,33.5
2022-08-16T10:52:02.271Z,32.7
2022-08-16T10:52:41.779Z,32.9
2022-08-16T10:53:41.784Z,33.7
2022-08-16T10:55:44.437Z,34.9
2022-08-16T10:56:52.266Z,34.4
2022-08-16T10:57:41.779Z,33.2
2022-08-16T10:58:41.786Z,33.6
2022-08-16T11:00:41.787Z,33
2022-08-16T11:01:44.087Z,32.2
2022-08-16T11:02:58.162Z,31.3
2022-08-16T11:03:44.590Z,32.5
2022-08-16T11:07:43.615Z,30.1
2022-08-16T11:08:44.954Z,30.9
2022-08-16T11:09:43.029Z,32.3
2022-08-16T11:12:41.792Z,29.8
2022-08-16T11:15:11.243Z,31.7
2022-08-16T11:15:42.159Z,31
2022-08-16T11:17:11.491Z,30.5
2022-08-16T11:17:45.058Z,31
2022-08-16T11:19:02.792Z,29.6
2022-08-16T11:22:47.652Z,32.5
2022-08-16T11:23:56.768Z,32.1
2022-08-16T11:24:45.023Z,33
2022-08-16T11:26:07.864Z,33.2
2022-08-16T11:26:41.815Z,33.6
2022-08-16T11:27:41.807Z,33.9
2022-08-16T11:29:41.806Z,32.8
2022-08-16T11:30:41.808Z,32
2022-08-16T11:31:45.513Z,32.4
2022-08-16T11:32:41.948Z,33.2
2022-08-16T11:33:57.101Z,33.7
2022-08-16T11:35:05.875Z,34
2022-08-16T11:36:22.146Z,33.7
2022-08-16T11:36:59.497Z,32
2022-08-16T11:38:51.048Z,30.9
2022-08-16T11:39:41.877Z,30.3
2022-08-16T11:40:44.433Z,30.3
2022-08-16T11:41:43.625Z,28.5
2022-08-16T11:42:41.817Z,28.6
2022-08-16T11:43:41.810Z,29.4
2022-08-16T11:44:51.996Z,28.2
2022-08-16T11:45:42.359Z,28.8
2022-08-16T11:46:44.339Z,27.1
2022-08-16T11:47:41.852Z,28.3
2022-08-16T11:48:41.817Z,27.1
2022-08-16T11:49:41.819Z,27.5
2022-08-16T11:50:41.819Z,28
2022-08-16T11:51:41.825Z,27.6
2022-08-16T11:53:41.822Z,28.7
2022-08-16T11:54:41.820Z,29.2
2022-08-16T11:55:44.182Z,28.4
2022-08-16T11:56:51.622Z,28.4
2022-08-16T11:57:41.827Z,29.4
2022-08-16T11:58:41.832Z,27.5
2022-08-16T11:59:41.827Z,27.4
2022-08-16T12:00:51.375Z,28.4
2022-08-16T12:01:44.582Z,28.5
2022-08-16T12:02:46.002Z,29.9
2022-08-16T12:03:42.095Z,29.5
2022-08-16T12:04:41.836Z,30.7
2022-08-16T12:05:41.877Z,30.7
2022-08-16T12:06:41.826Z,29.7
2022-08-16T12:07:41.927Z,28.8
2022-08-16T12:08:41.834Z,29.5
2022-08-16T12:09:43.526Z,29.2
2022-08-16T12:10:43.259Z,28.7
2022-08-16T12:11:41.823Z,28.2
2022-08-16T12:12:41.837Z,27.5
2022-08-16T12:14:41.832Z,29.2
2022-08-16T12:15:41.841Z,27.6
2022-08-16T12:16:48.645Z,27.6
2022-08-16T12:17:41.906Z,27.4
2022-08-16T12:18:41.855Z,27.3
2022-08-16T12:19:41.841Z,27.9
2022-08-16T12:20:41.836Z,28
2022-08-16T12:21:58.907Z,27.5
2022-08-16T12:22:41.842Z,29.5
2022-08-16T12:23:41.836Z,29.7
2022-08-16T12:25:41.840Z,28
2022-08-16T12:27:41.837Z,27.8
2022-08-16T12:28:55.820Z,30.3
2022-08-16T12:29:41.838Z,29.3
2022-08-16T12:30:41.847Z,28.7
2022-08-16T12:32:00.490Z,28.4
2022-08-16T12:32:42.224Z,27.6
2022-08-16T12:33:44.599Z,26.9
2022-08-16T12:34:50.783Z,28.5
2022-08-16T12:35:41.855Z,28.4
2022-08-16T12:36:41.854Z,28.1
2022-08-16T12:37:41.904Z,29.4
2022-08-16T12:38:48.216Z,29.1
2022-08-16T12:39:50.926Z,28
2022-08-16T12:40:42.028Z,27
2022-08-16T12:41:44.943Z,27.3
2022-08-16T12:42:53.094Z,26.7
2022-08-16T12:43:45.125Z,26.5
2022-08-16T12:44:41.845Z,27.1
2022-08-16T12:45:43.523Z,27.6
2022-08-16T12:46:41.850Z,26.2
2022-08-16T12:47:41.854Z,26.6
2022-08-16T12:48:42.341Z,27.1
2022-08-16T12:49:42.528Z,26.9
2022-08-16T12:50:41.855Z,26.8
2022-08-16T12:51:59.391Z,27.7
2022-08-16T12:52:43.590Z,27.2
2022-08-16T12:53:41.868Z,27.5
2022-08-16T12:54:41.864Z,27.7
2022-08-16T12:55:43.819Z,27.8
2022-08-16T12:57:41.866Z,26.9
2022-08-16T12:58:50.222Z,27.9
2022-08-16T12:59:41.865Z,27.5
2022-08-16T13:00:41.917Z,26.7
2022-08-16T13:01:41.878Z,27.1
2022-08-16T13:02:41.876Z,27.8
2022-08-16T13:03:41.871Z,28.3
2022-08-16T13:04:41.870Z,28.4
2022-08-16T13:05:45.068Z,30.4
2022-08-16T13:06:41.871Z,30.3
2022-08-16T13:07:45.386Z,30.3
2022-08-16T13:08:41.883Z,30
2022-08-16T13:09:42.515Z,30.1
2022-08-16T13:11:52.184Z,30.5
2022-08-16T13:12:42.859Z,30.5
2022-08-16T13:13:41.873Z,31.2
2022-08-16T13:14:41.879Z,31.5
2022-08-16T13:15:51.499Z,30.7
2022-08-16T13:16:41.885Z,30.6
2022-08-16T13:17:46.894Z,30.3
2022-08-16T13:18:41.878Z,30
2022-08-16T13:20:06.601Z,30.4
2022-08-16T13:20:41.875Z,30.3
2022-08-16T13:21:41.885Z,29.1
2022-08-16T13:22:42.061Z,29.8
2022-08-16T13:23:43.559Z,30.9
2022-08-16T13:24:41.879Z,29.8
2022-08-16T13:25:41.889Z,30.3
2022-08-16T13:26:41.879Z,29.9
2022-08-16T13:28:41.884Z,29.8
2022-08-16T13:29:43.834Z,29.7
2022-08-16T13:30:42.403Z,30.2
2022-08-16T13:31:41.889Z,30.1
2022-08-16T13:32:41.888Z,29.2
2022-08-16T13:33:41.884Z,29.6
2022-08-16T13:34:41.887Z,30.3
2022-08-16T13:36:49.647Z,28.8
2022-08-16T13:37:41.902Z,28.8
2022-08-16T13:39:41.973Z,28
2022-08-16T13:40:41.893Z,28.6
2022-08-16T13:41:41.900Z,27.9
2022-08-16T13:42:43.330Z,27.5
2022-08-16T13:43:41.908Z,27.7
2022-08-16T13:44:56.569Z,28
2022-08-16T13:45:44.790Z,29.1
2022-08-16T13:46:41.893Z,28.9
2022-08-16T13:47:41.902Z,29.1
2022-08-16T13:48:44.629Z,30.5
2022-08-16T13:49:41.906Z,30.6
2022-08-16T13:50:49.206Z,30.1
2022-08-16T13:51:41.893Z,30
2022-08-16T13:52:41.906Z,30.1
2022-08-16T13:53:41.909Z,29.3
2022-08-16T13:54:41.897Z,29
2022-08-16T13:55:41.901Z,29.7
2022-08-16T13:56:41.905Z,29.4
2022-08-16T13:58:34.359Z,29.8
2022-08-16T13:58:54.779Z,29.7
2022-08-16T13:59:41.909Z,29.6
2022-08-16T14:00:41.919Z,30.4
2022-08-16T14:01:41.902Z,30.6
2022-08-16T14:02:41.955Z,31.2
2022-08-16T14:03:41.908Z,31.3
2022-08-16T14:04:41.915Z,32.1
2022-08-16T14:05:41.911Z,32.3
2022-08-16T14:06:41.921Z,31.7
2022-08-16T14:07:41.966Z,31.3
2022-08-16T14:08:42.363Z,31.4